WetterOnline ( https://www.wetteronline.ch )

Wetter aktuell Feldberg Gipfel

Aktuelles Wetter: Feldberg/Schwarzwald (1493m)

6-stündlich | Neueste Meldungen
Ortszeit Temperatur Wetter
Mo, 17.06. 2:00 8.7° C Nebel
So, 16.06. 20:00 10.8° C leicht bewölkt
So, 16.06. 14:00 8.1° C bedeckt
So, 16.06. 8:00 5.8° C Nebel
So, 16.06. 2:00 8.0° C starker Regen
Sa, 15.06. 20:00 10.5° C leichter Regen
Sa, 15.06. 14:00 12.7° C leicht bewölkt
Sa, 15.06. 8:00 8.6° C Nebel
Ortszeit Temperatur Wetter
Mo, 17.06. 7:30 9.4° C fast wolkenlos
Mo, 17.06. 7:20 9.4° C fast wolkenlos
Mo, 17.06. 7:10 9.4° C leicht bewölkt
Mo, 17.06. 7:00 9.3° C wolkenlos
Mo, 17.06. 6:50 9.3° C wolkenlos
Mo, 17.06. 6:40 9.5° C wolkenlos
Mo, 17.06. 6:30 9.3° C wolkenlos
Mo, 17.06. 6:00 8.7° C wolkenlos
Mo, 17.06. 5:30 8.1° C fast wolkenlos
Mo, 17.06. 5:00 7.9° C Nebel
Mo, 17.06. 4:30 8.3° C wolkenlos
Mo, 17.06. 4:00 8.4° C fast wolkenlos
Ortszeit Relative Feuchte Sichtweite
Mo, 17.06. 2:00 99% <100 m
So, 16.06. 20:00 82% 45 km
So, 16.06. 14:00 91% 40 km
So, 16.06. 8:00 99% <100 m
So, 16.06. 2:00 100% 100 m
Sa, 15.06. 20:00 89% 35 km
Sa, 15.06. 14:00 80% >70 km
Sa, 15.06. 8:00 100% <100 m
Ortszeit Relative Feuchte Sichtweite
Mo, 17.06. 7:30 73% 55 km
Mo, 17.06. 7:20 73% -
Mo, 17.06. 7:10 72% -
Mo, 17.06. 7:00 73% 65 km
Mo, 17.06. 6:50 73% -
Mo, 17.06. 6:40 71% -
Mo, 17.06. 6:30 71% >70 km
Mo, 17.06. 6:00 81% 45 km
Mo, 17.06. 5:30 93% 20 km
Mo, 17.06. 5:00 98% 100 m
Mo, 17.06. 4:30 90% 30 km
Mo, 17.06. 4:00 95% 12 km
Ortszeit Niederschlagsmenge Niederschlagsart
Mo, 17.06. 2:00 0.0 l/m2 in 6 Std. -
So, 16.06. 20:00 0.1 l/m2 in 12 Std. -
So, 16.06. 14:00 0.1 l/m2 in 6 Std. Regen
So, 16.06. 8:00 42 l/m2 in 12 Std. Regen
So, 16.06. 2:00 31 l/m2 in 6 Std. Regen
Sa, 15.06. 20:00 0.1 l/m2 in 12 Std. Regen
Sa, 15.06. 14:00 0.1 l/m2 in 6 Std. Niederschlag
Sa, 15.06. 8:00 0.1 l/m2 in 12 Std. Regen
Ortszeit Niederschlagsmenge Niederschlagsart
Mo, 17.06. 7:30 0.0 l/m2 in 1 Std. -
Mo, 17.06. 7:20 keine Meldung -
Mo, 17.06. 7:10 keine Meldung -
Mo, 17.06. 7:00 0.0 l/m2 in 1 Std. -
Mo, 17.06. 6:50 keine Meldung -
Mo, 17.06. 6:40 keine Meldung -
Mo, 17.06. 6:30 0.0 l/m2 in 1 Std. -
Mo, 17.06. 6:00 0.0 l/m2 in 1 Std. -
Mo, 17.06. 5:30 0.0 l/m2 in 1 Std. -
Mo, 17.06. 5:00 0.0 l/m2 in 1 Std. -
Mo, 17.06. 4:30 0.0 l/m2 in 1 Std. -
Mo, 17.06. 4:00 0.0 l/m2 in 1 Std. -
Ortszeit Stärke Spitze Richtung
km/h Bft. km/h Grad Sektor
Mo, 17.06. 2:00 33 5 44 90° O
So, 16.06. 20:00 7 2 18 360° N
So, 16.06. 14:00 9 2 31 360° N
So, 16.06. 8:00 22 4 40 360° N
So, 16.06. 2:00 24 4 46 310° NW
Sa, 15.06. 20:00 19 3 31 360° N
Sa, 15.06. 14:00 13 3 61 300° NW
Sa, 15.06. 8:00 50 7 76 230° SW
Ortszeit Stärke Spitze Richtung
km/h Bft. km/h Grad Sektor
Mo, 17.06. 7:30 41 6 54 80° O
Mo, 17.06. 7:20 41 6 - 80° O
Mo, 17.06. 7:10 43 6 - 80° O
Mo, 17.06. 7:00 39 6 48 90° O
Mo, 17.06. 6:50 39 6 - 90° O
Mo, 17.06. 6:40 37 5 - 90° O
Mo, 17.06. 6:30 37 5 43 90° O
Mo, 17.06. 6:00 41 6 48 90° O
Mo, 17.06. 5:30 43 6 48 90° O
Mo, 17.06. 5:00 40 6 47 90° O
Mo, 17.06. 4:30 37 5 44 90° O
Mo, 17.06. 4:00 35 5 43 90° O
Ortszeit Untergrenze Bedeckung Gattung
total tief tief mittel hoch
Mo, 17.06. 2:00 <30 m 6/8 0/8 - - -
So, 16.06. 20:00 660 m 2/8 1/8 - - -
So, 16.06. 14:00 60 m 8/8 8/8 - - -
So, 16.06. 8:00 <30 m 8/8 0/8 - - -
So, 16.06. 2:00 <30 m 7/8 0/8 - - -
Sa, 15.06. 20:00 1050 m 7/8 7/8 - - -
Sa, 15.06. 14:00 1800 m 4/8 4/8 - - -
Sa, 15.06. 8:00 <30 m 7/8 0/8 - - -
Ortszeit Bedeckungsgrad in Achtel und Wolkenuntergrenze
Mo, 17.06. 7:30 2(10500m)
Mo, 17.06. 7:20 2(10500m)
Mo, 17.06. 7:10 3(10500m)
Mo, 17.06. 7:00 3(10500m)
Mo, 17.06. 6:50 keine Wolken
Mo, 17.06. 6:40 keine Wolken
Mo, 17.06. 6:30 keine Wolken
Mo, 17.06. 6:00 keine Wolken
Mo, 17.06. 5:30 1(<30m)
Mo, 17.06. 5:00 5(<30m)
Mo, 17.06. 4:30 keine Wolken
Mo, 17.06. 4:00 1(<30m)
Ortszeit Stationsdruck (hPa) Tendenz (hPa in 3 Std.)
Mo, 17.06. 2:00 855 - 0,8
So, 16.06. 20:00 856 - 0,1
So, 16.06. 14:00 856 + 0,5
So, 16.06. 8:00 855 + 0,8
So, 16.06. 2:00 854 + 0,6
Sa, 15.06. 20:00 852 - 0,3
Sa, 15.06. 14:00 853 + 1,2
Sa, 15.06. 8:00 850 + 1,0
Ortszeit Stationsdruck (hPa) Tendenz (hPa in 3 Std.)
Mo, 17.06. 7:30 854 - 0,3
Mo, 17.06. 7:20 854 keine Meldung
Mo, 17.06. 7:10 854 keine Meldung
Mo, 17.06. 7:00 854 - 0,6
Mo, 17.06. 6:50 854 keine Meldung
Mo, 17.06. 6:40 854 keine Meldung
Mo, 17.06. 6:30 854 - 0,6
Mo, 17.06. 6:00 854 - 0,7
Mo, 17.06. 5:30 854 - 0,8
Mo, 17.06. 5:00 854 - 0,7
Mo, 17.06. 4:30 855 - 0,6
Mo, 17.06. 4:00 855 - 0,6
Ortszeit Schneehöhe (cm)
Mo, 17.06. 2:00 0
So, 16.06. 20:00 0
So, 16.06. 14:00 0
So, 16.06. 8:00 0
So, 16.06. 2:00 0
Sa, 15.06. 20:00 0
Sa, 15.06. 14:00 0
Sa, 15.06. 8:00 0
Ortszeit Schneehöhe (cm)
Mo, 17.06. 7:30 0
Mo, 17.06. 7:20 0
Mo, 17.06. 7:10 0
Mo, 17.06. 7:00 0
Mo, 17.06. 6:50 0
Mo, 17.06. 6:40 0
Mo, 17.06. 6:30 0
Mo, 17.06. 6:00 0
Mo, 17.06. 5:30 0
Mo, 17.06. 5:00 0
Mo, 17.06. 4:30 0
Mo, 17.06. 4:00 0
Link zu dieser Seite / Seite empfehlen

Das Wetter in ...